Richwood, Minnesota
Current Conditions -  °F | °C
As of 9:15 AM on Wednesday 22 Oct 2014 (Local Time) from KDTL Reporting Station
Clear Clear  
Wind Chill: 50°   Ceiling: Unl
Heat Index: 50°   Visibility: 10mi
Dew Point: 41°   Wind: 22mph
Humidity: 71%   Direction: 160°SSE
Pressure: 29.94"   Gusts: 26mph
Location:  46.97°N, 95.82°W
Report Text: KDTL 221415Z AUTO 16019G23KT 10SM CLR 10/05 A2994 RMK AO2
Loading
Personal Weather Stations






























Interactive Weather Map
Tropical Storm Tracking
New forecast layout! Learn more

10-Day Weather Forecast

Advertisements
Track Severe Weather on mobile